sensor_id;sensor_type;location;lat;lon;timestamp;temperature;humidity
54006;DHT22;39919;38.160;-122.260;2023-05-07T06:03:47;12.80;81.00
54006;DHT22;39919;38.160;-122.260;2023-05-07T06:06:16;12.70;81.40
54006;DHT22;39919;38.160;-122.260;2023-05-07T06:08:45;12.60;81.70
54006;DHT22;39919;38.160;-122.260;2023-05-07T06:11:14;12.60;82.20
54006;DHT22;39919;38.160;-122.260;2023-05-07T06:13:43;12.60;82.30
54006;DHT22;39919;38.160;-122.260;2023-05-07T06:16:12;12.50;82.10
54006;DHT22;39919;38.160;-122.260;2023-05-07T06:18:43;12.50;82.00
54006;DHT22;39919;38.160;-122.260;2023-05-07T06:21:14;12.50;82.60
54006;DHT22;39919;38.160;-122.260;2023-05-07T06:23:43;12.40;82.80
54006;DHT22;39919;38.160;-122.260;2023-05-07T06:26:12;12.40;82.70
54006;DHT22;39919;38.160;-122.260;2023-05-07T06:28:41;12.30;82.70
54006;DHT22;39919;38.160;-122.260;2023-05-07T06:31:14;12.30;83.00
54006;DHT22;39919;38.160;-122.260;2023-05-07T06:33:45;12.30;83.60
54006;DHT22;39919;38.160;-122.260;2023-05-07T06:36:14;12.30;83.70
54006;DHT22;39919;38.160;-122.260;2023-05-07T06:38:43;12.20;83.70
54006;DHT22;39919;38.160;-122.260;2023-05-07T06:41:12;12.20;83.80
54006;DHT22;39919;38.160;-122.260;2023-05-07T06:43:41;12.20;84.10
54006;DHT22;39919;38.160;-122.260;2023-05-07T06:46:11;12.10;84.20
54006;DHT22;39919;38.160;-122.260;2023-05-07T06:48:40;12.10;84.20
54006;DHT22;39919;38.160;-122.260;2023-05-07T06:51:11;12.10;84.60
54006;DHT22;39919;38.160;-122.260;2023-05-07T06:53:42;12.10;85.10
54006;DHT22;39919;38.160;-122.260;2023-05-07T06:56:13;12.00;84.90
54006;DHT22;39919;38.160;-122.260;2023-05-07T06:58:42;12.00;85.00
54006;DHT22;39919;38.160;-122.260;2023-05-07T07:01:11;12.00;85.80
54006;DHT22;39919;38.160;-122.260;2023-05-07T07:03:40;11.90;85.90
54006;DHT22;39919;38.160;-122.260;2023-05-07T07:06:11;11.90;86.50
54006;DHT22;39919;38.160;-122.260;2023-05-07T07:08:40;11.90;86.60
54006;DHT22;39919;38.160;-122.260;2023-05-07T07:11:09;11.90;86.70
54006;DHT22;39919;38.160;-122.260;2023-05-07T07:13:38;11.90;87.70
54006;DHT22;39919;38.160;-122.260;2023-05-07T07:16:08;11.80;88.40
54006;DHT22;39919;38.160;-122.260;2023-05-07T07:18:38;11.80;88.60
54006;DHT22;39919;38.160;-122.260;2023-05-07T07:21:07;11.80;88.60
54006;DHT22;39919;38.160;-122.260;2023-05-07T07:23:38;11.70;88.60
54006;DHT22;39919;38.160;-122.260;2023-05-07T07:26:07;11.70;88.80
54006;DHT22;39919;38.160;-122.260;2023-05-07T07:28:41;11.70;89.30
54006;DHT22;39919;38.160;-122.260;2023-05-07T07:31:11;11.70;89.90
54006;DHT22;39919;38.160;-122.260;2023-05-07T07:33:40;11.70;90.00
54006;DHT22;39919;38.160;-122.260;2023-05-07T07:36:10;11.60;90.30
54006;DHT22;39919;38.160;-122.260;2023-05-07T07:38:43;11.60;90.40
54006;DHT22;39919;38.160;-122.260;2023-05-07T07:41:13;11.60;90.80
54006;DHT22;39919;38.160;-122.260;2023-05-07T07:43:42;11.60;91.00
54006;DHT22;39919;38.160;-122.260;2023-05-07T07:46:11;11.50;91.30
54006;DHT22;39919;38.160;-122.260;2023-05-07T07:48:40;11.50;91.40
54006;DHT22;39919;38.160;-122.260;2023-05-07T07:51:09;11.50;91.40
54006;DHT22;39919;38.160;-122.260;2023-05-07T07:53:38;11.50;91.50
54006;DHT22;39919;38.160;-122.260;2023-05-07T07:56:09;11.50;92.00
54006;DHT22;39919;38.160;-122.260;2023-05-07T07:58:38;11.50;92.40
54006;DHT22;39919;38.160;-122.260;2023-05-07T08:01:07;11.40;92.70
54006;DHT22;39919;38.160;-122.260;2023-05-07T08:03:39;11.40;93.10
54006;DHT22;39919;38.160;-122.260;2023-05-07T08:06:08;11.40;93.40
54006;DHT22;39919;38.160;-122.260;2023-05-07T08:08:37;11.40;93.60
54006;DHT22;39919;38.160;-122.260;2023-05-07T08:11:06;11.40;93.70
54006;DHT22;39919;38.160;-122.260;2023-05-07T08:13:37;11.30;93.70
54006;DHT22;39919;38.160;-122.260;2023-05-07T08:16:07;11.40;93.90
54006;DHT22;39919;38.160;-122.260;2023-05-07T08:18:36;11.30;94.40
54006;DHT22;39919;38.160;-122.260;2023-05-07T08:21:05;11.30;94.70
54006;DHT22;39919;38.160;-122.260;2023-05-07T08:23:34;11.30;95.00
54006;DHT22;39919;38.160;-122.260;2023-05-07T08:26:05;11.30;95.10
54006;DHT22;39919;38.160;-122.260;2023-05-07T08:28:37;11.30;95.20
54006;DHT22;39919;38.160;-122.260;2023-05-07T08:31:07;11.30;95.70
54006;DHT22;39919;38.160;-122.260;2023-05-07T08:33:36;11.30;95.50
54006;DHT22;39919;38.160;-122.260;2023-05-07T08:36:05;11.20;95.50
54006;DHT22;39919;38.160;-122.260;2023-05-07T08:38:34;11.20;95.10
54006;DHT22;39919;38.160;-122.260;2023-05-07T08:41:04;11.20;95.00
54006;DHT22;39919;38.160;-122.260;2023-05-07T08:43:38;11.20;95.40
54006;DHT22;39919;38.160;-122.260;2023-05-07T08:46:10;11.10;95.50
54006;DHT22;39919;38.160;-122.260;2023-05-07T08:48:40;11.10;95.50
54006;DHT22;39919;38.160;-122.260;2023-05-07T08:51:11;11.10;95.70
54006;DHT22;39919;38.160;-122.260;2023-05-07T08:53:41;11.10;95.90
54006;DHT22;39919;38.160;-122.260;2023-05-07T08:56:11;11.10;95.80
54006;DHT22;39919;38.160;-122.260;2023-05-07T08:58:42;11.10;95.70
54006;DHT22;39919;38.160;-122.260;2023-05-07T09:01:14;11.10;95.80
54006;DHT22;39919;38.160;-122.260;2023-05-07T09:03:45;11.10;96.10
54006;DHT22;39919;38.160;-122.260;2023-05-07T09:06:15;11.00;96.20
54006;DHT22;39919;38.160;-122.260;2023-05-07T09:08:50;11.10;96.70
54006;DHT22;39919;38.160;-122.260;2023-05-07T09:11:23;11.00;96.70
54006;DHT22;39919;38.160;-122.260;2023-05-07T09:13:56;11.00;96.60
54006;DHT22;39919;38.160;-122.260;2023-05-07T09:16:28;11.00;96.30
54006;DHT22;39919;38.160;-122.260;2023-05-07T09:18:58;11.00;96.30
54006;DHT22;39919;38.160;-122.260;2023-05-07T09:21:28;11.00;96.00
54006;DHT22;39919;38.160;-122.260;2023-05-07T09:23:57;10.90;95.90
54006;DHT22;39919;38.160;-122.260;2023-05-07T09:26:26;10.90;95.80
54006;DHT22;39919;38.160;-122.260;2023-05-07T09:28:56;11.00;96.00
54006;DHT22;39919;38.160;-122.260;2023-05-07T09:31:26;11.00;96.00
54006;DHT22;39919;38.160;-122.260;2023-05-07T09:33:55;11.00;96.30
54006;DHT22;39919;38.160;-122.260;2023-05-07T09:36:24;10.90;96.50
54006;DHT22;39919;38.160;-122.260;2023-05-07T09:38:53;11.00;96.40
54006;DHT22;39919;38.160;-122.260;2023-05-07T09:41:23;11.00;96.40
54006;DHT22;39919;38.160;-122.260;2023-05-07T09:43:56;11.00;96.70
54006;DHT22;39919;38.160;-122.260;2023-05-07T09:46:29;11.00;96.80
54006;DHT22;39919;38.160;-122.260;2023-05-07T09:48:59;11.00;96.50
54006;DHT22;39919;38.160;-122.260;2023-05-07T09:51:32;11.00;96.50
54006;DHT22;39919;38.160;-122.260;2023-05-07T09:54:03;11.00;96.90
54006;DHT22;39919;38.160;-122.260;2023-05-07T09:56:33;11.00;97.10
54006;DHT22;39919;38.160;-122.260;2023-05-07T09:59:07;11.00;96.90
54006;DHT22;39919;38.160;-122.260;2023-05-07T10:01:37;11.00;97.10
54006;DHT22;39919;38.160;-122.260;2023-05-07T10:04:07;11.00;96.90
54006;DHT22;39919;38.160;-122.260;2023-05-07T10:06:37;11.00;96.90
54006;DHT22;39919;38.160;-122.260;2023-05-07T10:09:07;11.00;96.70
54006;DHT22;39919;38.160;-122.260;2023-05-07T10:11:36;11.00;96.50
54006;DHT22;39919;38.160;-122.260;2023-05-07T10:14:08;11.00;96.40
54006;DHT22;39919;38.160;-122.260;2023-05-07T10:16:37;11.00;96.30
54006;DHT22;39919;38.160;-122.260;2023-05-07T10:19:08;11.00;96.10
54006;DHT22;39919;38.160;-122.260;2023-05-07T10:21:47;11.00;95.90
54006;DHT22;39919;38.160;-122.260;2023-05-07T10:24:21;11.00;95.70
54006;DHT22;39919;38.160;-122.260;2023-05-07T10:26:52;11.00;95.80
54006;DHT22;39919;38.160;-122.260;2023-05-07T10:29:31;11.00;95.80
54006;DHT22;39919;38.160;-122.260;2023-05-07T10:32:17;11.00;96.00
54006;DHT22;39919;38.160;-122.260;2023-05-07T10:34:50;11.00;95.90
54006;DHT22;39919;38.160;-122.260;2023-05-07T10:37:19;11.00;95.90
54006;DHT22;39919;38.160;-122.260;2023-05-07T10:39:48;11.00;96.20
54006;DHT22;39919;38.160;-122.260;2023-05-07T10:42:18;10.90;96.00
54006;DHT22;39919;38.160;-122.260;2023-05-07T10:44:51;10.90;95.70
54006;DHT22;39919;38.160;-122.260;2023-05-07T10:47:20;10.90;95.80
54006;DHT22;39919;38.160;-122.260;2023-05-07T10:50:22;10.80;95.50
54006;DHT22;39919;38.160;-122.260;2023-05-07T10:53:22;10.80;95.10
54006;DHT22;39919;38.160;-122.260;2023-05-07T10:56:26;10.80;94.90
54006;DHT22;39919;38.160;-122.260;2023-05-07T10:58:56;10.80;94.80
54006;DHT22;39919;38.160;-122.260;2023-05-07T11:01:55;10.70;94.60
54006;DHT22;39919;38.160;-122.260;2023-05-07T11:04:25;10.60;94.50
54006;DHT22;39919;38.160;-122.260;2023-05-07T11:07:27;10.60;94.50
54006;DHT22;39919;38.160;-122.260;2023-05-07T11:10:03;10.60;94.50
54006;DHT22;39919;38.160;-122.260;2023-05-07T11:12:52;10.50;94.50
54006;DHT22;39919;38.160;-122.260;2023-05-07T11:15:42;10.50;94.70
54006;DHT22;39919;38.160;-122.260;2023-05-07T11:18:14;10.50;94.50
54006;DHT22;39919;38.160;-122.260;2023-05-07T11:21:01;10.40;94.60
54006;DHT22;39919;38.160;-122.260;2023-05-07T11:23:59;10.40;94.70
54006;DHT22;39919;38.160;-122.260;2023-05-07T11:26:29;10.40;94.70
54006;DHT22;39919;38.160;-122.260;2023-05-07T11:28:59;10.30;94.60
54006;DHT22;39919;38.160;-122.260;2023-05-07T11:31:29;10.30;94.60
54006;DHT22;39919;38.160;-122.260;2023-05-07T11:34:00;10.20;94.60
54006;DHT22;39919;38.160;-122.260;2023-05-07T11:36:32;10.20;94.60
54006;DHT22;39919;38.160;-122.260;2023-05-07T11:39:01;10.20;94.50
54006;DHT22;39919;38.160;-122.260;2023-05-07T11:41:37;10.10;94.30
54006;DHT22;39919;38.160;-122.260;2023-05-07T11:44:06;10.10;94.80
54006;DHT22;39919;38.160;-122.260;2023-05-07T11:46:35;10.00;95.10
54006;DHT22;39919;38.160;-122.260;2023-05-07T11:49:06;10.00;95.10
54006;DHT22;39919;38.160;-122.260;2023-05-07T11:51:35;9.90;95.00
54006;DHT22;39919;38.160;-122.260;2023-05-07T11:54:05;9.90;94.90
54006;DHT22;39919;38.160;-122.260;2023-05-07T11:56:36;9.90;94.80
54006;DHT22;39919;38.160;-122.260;2023-05-07T11:59:05;9.80;94.70
54006;DHT22;39919;38.160;-122.260;2023-05-07T12:01:37;9.80;95.20
54006;DHT22;39919;38.160;-122.260;2023-05-07T12:04:08;9.80;95.80
54006;DHT22;39919;38.160;-122.260;2023-05-07T12:06:37;9.70;96.10
54006;DHT22;39919;38.160;-122.260;2023-05-07T12:09:07;9.70;96.40
54006;DHT22;39919;38.160;-122.260;2023-05-07T12:11:38;9.60;96.00
54006;DHT22;39919;38.160;-122.260;2023-05-07T12:14:08;9.60;96.20
54006;DHT22;39919;38.160;-122.260;2023-05-07T12:16:38;9.60;96.60
54006;DHT22;39919;38.160;-122.260;2023-05-07T12:19:09;9.60;96.80
54006;DHT22;39919;38.160;-122.260;2023-05-07T12:21:39;9.50;96.70
54006;DHT22;39919;38.160;-122.260;2023-05-07T12:24:09;9.50;96.60
54006;DHT22;39919;38.160;-122.260;2023-05-07T12:26:39;9.50;96.40
54006;DHT22;39919;38.160;-122.260;2023-05-07T12:29:08;9.40;96.50
54006;DHT22;39919;38.160;-122.260;2023-05-07T12:31:41;9.40;96.40
54006;DHT22;39919;38.160;-122.260;2023-05-07T12:34:13;9.30;96.50
54006;DHT22;39919;38.160;-122.260;2023-05-07T12:36:42;9.30;96.20
54006;DHT22;39919;38.160;-122.260;2023-05-07T12:39:11;9.30;95.80
54006;DHT22;39919;38.160;-122.260;2023-05-07T12:41:56;9.20;95.90
54006;DHT22;39919;38.160;-122.260;2023-05-07T12:44:30;9.20;96.40
54006;DHT22;39919;38.160;-122.260;2023-05-07T12:47:01;9.20;96.90
54006;DHT22;39919;38.160;-122.260;2023-05-07T12:49:33;9.20;97.00
54006;DHT22;39919;38.160;-122.260;2023-05-07T12:52:04;9.10;97.00
54006;DHT22;39919;38.160;-122.260;2023-05-07T12:54:35;9.10;96.60
54006;DHT22;39919;38.160;-122.260;2023-05-07T12:57:06;9.00;96.30
54006;DHT22;39919;38.160;-122.260;2023-05-07T12:59:36;9.00;96.50
54006;DHT22;39919;38.160;-122.260;2023-05-07T13:02:05;9.00;96.90
54006;DHT22;39919;38.160;-122.260;2023-05-07T13:04:36;8.90;96.90
54006;DHT22;39919;38.160;-122.260;2023-05-07T13:07:05;8.90;96.80
54006;DHT22;39919;38.160;-122.260;2023-05-07T13:09:34;8.90;96.60
54006;DHT22;39919;38.160;-122.260;2023-05-07T13:12:04;8.90;96.60
54006;DHT22;39919;38.160;-122.260;2023-05-07T13:14:33;8.90;96.50
54006;DHT22;39919;38.160;-122.260;2023-05-07T13:17:02;8.80;96.40
54006;DHT22;39919;38.160;-122.260;2023-05-07T13:19:31;8.80;96.30
54006;DHT22;39919;38.160;-122.260;2023-05-07T13:22:06;8.80;96.10
54006;DHT22;39919;38.160;-122.260;2023-05-07T13:24:35;8.80;96.20
54006;DHT22;39919;38.160;-122.260;2023-05-07T13:27:04;8.80;96.30
54006;DHT22;39919;38.160;-122.260;2023-05-07T13:29:33;8.80;96.70
54006;DHT22;39919;38.160;-122.260;2023-05-07T13:32:05;8.70;96.50
54006;DHT22;39919;38.160;-122.260;2023-05-07T13:34:34;8.70;96.70
54006;DHT22;39919;38.160;-122.260;2023-05-07T13:37:05;8.70;96.70
54006;DHT22;39919;38.160;-122.260;2023-05-07T13:39:35;8.70;96.90
54006;DHT22;39919;38.160;-122.260;2023-05-07T13:42:04;8.70;97.10
54006;DHT22;39919;38.160;-122.260;2023-05-07T13:44:33;8.70;97.30
54006;DHT22;39919;38.160;-122.260;2023-05-07T13:47:02;8.80;97.20
54006;DHT22;39919;38.160;-122.260;2023-05-07T13:49:31;8.80;97.00
54006;DHT22;39919;38.160;-122.260;2023-05-07T13:52:00;8.90;97.00
54006;DHT22;39919;38.160;-122.260;2023-05-07T13:54:31;8.90;96.80
54006;DHT22;39919;38.160;-122.260;2023-05-07T13:57:01;8.90;96.70
54006;DHT22;39919;38.160;-122.260;2023-05-07T13:59:30;9.00;97.00
54006;DHT22;39919;38.160;-122.260;2023-05-07T14:01:59;9.10;96.90
54006;DHT22;39919;38.160;-122.260;2023-05-07T14:04:28;9.10;96.90
54006;DHT22;39919;38.160;-122.260;2023-05-07T14:06:57;9.20;96.90
54006;DHT22;39919;38.160;-122.260;2023-05-07T14:09:26;9.30;96.80
54006;DHT22;39919;38.160;-122.260;2023-05-07T14:11:57;9.40;96.90
54006;DHT22;39919;38.160;-122.260;2023-05-07T14:14:26;9.40;96.70
54006;DHT22;39919;38.160;-122.260;2023-05-07T14:16:55;9.50;96.60
54006;DHT22;39919;38.160;-122.260;2023-05-07T14:19:24;9.60;96.60
54006;DHT22;39919;38.160;-122.260;2023-05-07T14:21:53;9.70;96.50
54006;DHT22;39919;38.160;-122.260;2023-05-07T14:24:22;9.80;96.40
54006;DHT22;39919;38.160;-122.260;2023-05-07T14:26:51;9.90;96.30
54006;DHT22;39919;38.160;-122.260;2023-05-07T14:29:22;10.00;96.30
54006;DHT22;39919;38.160;-122.260;2023-05-07T14:31:51;10.10;96.30
54006;DHT22;39919;38.160;-122.260;2023-05-07T14:34:20;10.20;96.40
54006;DHT22;39919;38.160;-122.260;2023-05-07T14:36:49;10.40;96.20
54006;DHT22;39919;38.160;-122.260;2023-05-07T14:39:18;10.50;95.90
54006;DHT22;39919;38.160;-122.260;2023-05-07T14:41:47;10.60;95.70
54006;DHT22;39919;38.160;-122.260;2023-05-07T14:44:16;10.70;95.50
54006;DHT22;39919;38.160;-122.260;2023-05-07T14:46:47;10.90;95.30
54006;DHT22;39919;38.160;-122.260;2023-05-07T14:49:16;11.00;95.10
54006;DHT22;39919;38.160;-122.260;2023-05-07T14:51:45;11.10;94.80
54006;DHT22;39919;38.160;-122.260;2023-05-07T14:54:15;11.30;94.60
54006;DHT22;39919;38.160;-122.260;2023-05-07T14:56:44;11.50;94.80
54006;DHT22;39919;38.160;-122.260;2023-05-07T14:59:13;11.70;95.70
54006;DHT22;39919;38.160;-122.260;2023-05-07T15:01:44;12.10;97.00
54006;DHT22;39919;38.160;-122.260;2023-05-07T15:04:15;13.00;97.10
54006;DHT22;39919;38.160;-122.260;2023-05-07T15:06:44;14.10;95.50
54006;DHT22;39919;38.160;-122.260;2023-05-07T15:09:26;15.30;92.50
54006;DHT22;39919;38.160;-122.260;2023-05-07T15:11:55;16.60;89.70
54006;DHT22;39919;38.160;-122.260;2023-05-07T15:14:24;17.80;98.90
54006;DHT22;39919;38.160;-122.260;2023-05-07T15:16:54;18.90;95.10
54006;DHT22;39919;38.160;-122.260;2023-05-07T15:19:24;20.00;90.40
54006;DHT22;39919;38.160;-122.260;2023-05-07T15:21:56;21.00;86.70
54006;DHT22;39919;38.160;-122.260;2023-05-07T15:24:26;21.90;83.20
54006;DHT22;39919;38.160;-122.260;2023-05-07T15:26:55;22.70;74.70
54006;DHT22;39919;38.160;-122.260;2023-05-07T15:29:25;23.60;72.70
54006;DHT22;39919;38.160;-122.260;2023-05-07T15:31:53;24.30;71.40
54006;DHT22;39919;38.160;-122.260;2023-05-07T15:34:24;25.10;71.60
54006;DHT22;39919;38.160;-122.260;2023-05-07T15:36:54;25.80;71.00
54006;DHT22;39919;38.160;-122.260;2023-05-07T15:39:24;26.50;68.40
54006;DHT22;39919;38.160;-122.260;2023-05-07T15:41:53;27.20;66.40
54006;DHT22;39919;38.160;-122.260;2023-05-07T15:44:22;27.70;66.90
54006;DHT22;39919;38.160;-122.260;2023-05-07T15:46:55;28.20;67.30
54006;DHT22;39919;38.160;-122.260;2023-05-07T15:49:26;28.80;66.90
54006;DHT22;39919;38.160;-122.260;2023-05-07T15:51:55;29.30;68.00
54006;DHT22;39919;38.160;-122.260;2023-05-07T15:54:24;29.90;67.20
54006;DHT22;39919;38.160;-122.260;2023-05-07T15:56:53;30.30;84.40
54006;DHT22;39919;38.160;-122.260;2023-05-07T15:59:22;30.80;49.30
54006;DHT22;39919;38.160;-122.260;2023-05-07T16:01:51;31.30;51.10
54006;DHT22;39919;38.160;-122.260;2023-05-07T16:04:21;31.60;47.70
54006;DHT22;39919;38.160;-122.260;2023-05-07T16:21:54;34.20;40.10
54006;DHT22;39919;38.160;-122.260;2023-05-07T16:24:23;34.50;43.50
54006;DHT22;39919;38.160;-122.260;2023-05-07T16:26:52;34.60;40.70
54006;DHT22;39919;38.160;-122.260;2023-05-07T16:29:21;34.60;38.70
54006;DHT22;39919;38.160;-122.260;2023-05-07T16:31:51;34.60;38.60
54006;DHT22;39919;38.160;-122.260;2023-05-07T16:34:21;34.60;39.10
54006;DHT22;39919;38.160;-122.260;2023-05-07T16:36:50;34.70;41.30
54006;DHT22;39919;38.160;-122.260;2023-05-07T16:39:20;34.90;41.00
54006;DHT22;39919;38.160;-122.260;2023-05-07T16:41:49;35.00;38.40
54006;DHT22;39919;38.160;-122.260;2023-05-07T16:44:18;35.20;40.70
54006;DHT22;39919;38.160;-122.260;2023-05-07T16:49:18;35.60;39.30
54006;DHT22;39919;38.160;-122.260;2023-05-07T16:51:48;35.80;39.40
54006;DHT22;39919;38.160;-122.260;2023-05-07T16:54:19;36.00;38.00
54006;DHT22;39919;38.160;-122.260;2023-05-07T16:56:49;36.10;40.20
54006;DHT22;39919;38.160;-122.260;2023-05-07T16:59:18;36.30;36.60
54006;DHT22;39919;38.160;-122.260;2023-05-07T17:01:47;36.40;38.60
54006;DHT22;39919;38.160;-122.260;2023-05-07T17:04:18;36.50;37.90
54006;DHT22;39919;38.160;-122.260;2023-05-07T17:06:48;36.60;37.20
54006;DHT22;39919;38.160;-122.260;2023-05-07T17:09:21;36.50;38.00
54006;DHT22;39919;38.160;-122.260;2023-05-07T17:11:51;36.40;37.80
54006;DHT22;39919;38.160;-122.260;2023-05-07T17:14:20;36.30;37.40
54006;DHT22;39919;38.160;-122.260;2023-05-07T17:16:49;36.10;34.80
54006;DHT22;39919;38.160;-122.260;2023-05-07T17:19:18;35.80;35.70
54006;DHT22;39919;38.160;-122.260;2023-05-07T17:21:47;35.60;35.00
54006;DHT22;39919;38.160;-122.260;2023-05-07T17:24:17;35.40;36.80
54006;DHT22;39919;38.160;-122.260;2023-05-07T17:26:49;35.40;37.10
54006;DHT22;39919;38.160;-122.260;2023-05-07T17:29:18;35.60;36.40
54006;DHT22;39919;38.160;-122.260;2023-05-07T17:31:47;35.70;36.60
54006;DHT22;39919;38.160;-122.260;2023-05-07T17:34:16;35.90;37.10
54006;DHT22;39919;38.160;-122.260;2023-05-07T17:36:47;36.10;36.50
54006;DHT22;39919;38.160;-122.260;2023-05-07T17:39:16;36.10;34.60
54006;DHT22;39919;38.160;-122.260;2023-05-07T17:41:45;35.90;33.90
54006;DHT22;39919;38.160;-122.260;2023-05-07T17:44:16;35.80;35.00
54006;DHT22;39919;38.160;-122.260;2023-05-07T17:46:46;35.80;36.80
54006;DHT22;39919;38.160;-122.260;2023-05-07T17:49:16;36.00;37.20
54006;DHT22;39919;38.160;-122.260;2023-05-07T17:51:45;36.20;37.70
54006;DHT22;39919;38.160;-122.260;2023-05-07T17:54:14;36.50;38.00
54006;DHT22;39919;38.160;-122.260;2023-05-07T17:56:43;36.70;35.30
54006;DHT22;39919;38.160;-122.260;2023-05-07T17:59:14;36.60;34.70
54006;DHT22;39919;38.160;-122.260;2023-05-07T18:01:43;36.70;37.10
54006;DHT22;39919;38.160;-122.260;2023-05-07T18:04:12;36.60;34.80
54006;DHT22;39919;38.160;-122.260;2023-05-07T18:06:41;36.40;34.30
54006;DHT22;39919;38.160;-122.260;2023-05-07T18:09:10;36.20;34.20
54006;DHT22;39919;38.160;-122.260;2023-05-07T18:11:39;36.10;35.10
54006;DHT22;39919;38.160;-122.260;2023-05-07T18:14:11;35.90;33.90
54006;DHT22;39919;38.160;-122.260;2023-05-07T18:16:42;35.70;33.70
54006;DHT22;39919;38.160;-122.260;2023-05-07T18:19:11;35.40;33.10
54006;DHT22;39919;38.160;-122.260;2023-05-07T18:21:40;35.10;34.60
54006;DHT22;39919;38.160;-122.260;2023-05-07T18:24:09;35.00;34.50
54006;DHT22;39919;38.160;-122.260;2023-05-07T18:26:38;34.70;35.10
54006;DHT22;39919;38.160;-122.260;2023-05-07T18:29:07;34.60;35.40
54006;DHT22;39919;38.160;-122.260;2023-05-07T18:31:37;34.60;34.50
54006;DHT22;39919;38.160;-122.260;2023-05-07T18:34:08;34.60;36.10
54006;DHT22;39919;38.160;-122.260;2023-05-07T18:36:37;34.60;34.70
54006;DHT22;39919;38.160;-122.260;2023-05-07T18:39:06;34.50;36.90
54006;DHT22;39919;38.160;-122.260;2023-05-07T18:41:36;34.50;34.40
54006;DHT22;39919;38.160;-122.260;2023-05-07T18:44:05;34.30;35.20
54006;DHT22;39919;38.160;-122.260;2023-05-07T18:46:34;34.20;36.70
54006;DHT22;39919;38.160;-122.260;2023-05-07T18:49:04;34.10;34.30
54006;DHT22;39919;38.160;-122.260;2023-05-07T18:51:35;34.00;33.90
54006;DHT22;39919;38.160;-122.260;2023-05-07T18:54:04;34.00;36.40
54006;DHT22;39919;38.160;-122.260;2023-05-07T18:56:33;33.90;35.70
54006;DHT22;39919;38.160;-122.260;2023-05-07T18:59:02;33.70;35.70
54006;DHT22;39919;38.160;-122.260;2023-05-07T19:01:31;33.70;37.40
54006;DHT22;39919;38.160;-122.260;2023-05-07T19:06:47;33.30;36.70
54006;DHT22;39919;38.160;-122.260;2023-05-07T19:09:16;33.20;37.50
54006;DHT22;39919;38.160;-122.260;2023-05-07T19:11:46;33.00;38.40
54006;DHT22;39919;38.160;-122.260;2023-05-07T19:14:15;32.80;37.20
54006;DHT22;39919;38.160;-122.260;2023-05-07T19:16:44;32.60;38.20
54006;DHT22;39919;38.160;-122.260;2023-05-07T19:19:13;32.30;38.30
54006;DHT22;39919;38.160;-122.260;2023-05-07T19:21:42;32.00;37.80
54006;DHT22;39919;38.160;-122.260;2023-05-07T19:24:13;31.70;36.60
54006;DHT22;39919;38.160;-122.260;2023-05-07T19:26:42;31.20;36.00
54006;DHT22;39919;38.160;-122.260;2023-05-07T19:29:11;30.70;37.30
54006;DHT22;39919;38.160;-122.260;2023-05-07T19:31:40;30.10;37.20
54006;DHT22;39919;38.160;-122.260;2023-05-07T19:34:09;29.60;38.20
54006;DHT22;39919;38.160;-122.260;2023-05-07T19:36:39;29.10;38.10
54006;DHT22;39919;38.160;-122.260;2023-05-07T19:39:09;28.60;37.40
54006;DHT22;39919;38.160;-122.260;2023-05-07T19:41:40;28.10;37.70
54006;DHT22;39919;38.160;-122.260;2023-05-07T19:44:09;27.60;38.60
54006;DHT22;39919;38.160;-122.260;2023-05-07T19:46:39;27.20;38.90
54006;DHT22;39919;38.160;-122.260;2023-05-07T19:49:10;26.80;39.90
54006;DHT22;39919;38.160;-122.260;2023-05-07T19:51:40;26.40;39.70
54006;DHT22;39919;38.160;-122.260;2023-05-07T19:54:09;26.10;40.30
54006;DHT22;39919;38.160;-122.260;2023-05-07T19:56:40;25.90;40.60
54006;DHT22;39919;38.160;-122.260;2023-05-07T19:59:09;25.70;40.10
54006;DHT22;39919;38.160;-122.260;2023-05-07T20:01:41;25.40;40.70
54006;DHT22;39919;38.160;-122.260;2023-05-07T20:04:11;25.20;40.60
54006;DHT22;39919;38.160;-122.260;2023-05-07T20:06:40;24.90;41.20
54006;DHT22;39919;38.160;-122.260;2023-05-07T20:11:41;24.60;40.70
54006;DHT22;39919;38.160;-122.260;2023-05-07T20:16:39;24.10;41.80
54006;DHT22;39919;38.160;-122.260;2023-05-07T20:19:08;23.80;43.10
54006;DHT22;39919;38.160;-122.260;2023-05-07T20:21:37;23.60;43.20
54006;DHT22;39919;38.160;-122.260;2023-05-07T20:24:07;23.40;43.50
54006;DHT22;39919;38.160;-122.260;2023-05-07T20:26:36;23.20;43.30
54006;DHT22;39919;38.160;-122.260;2023-05-07T20:29:08;23.00;43.90
54006;DHT22;39919;38.160;-122.260;2023-05-07T20:31:38;22.90;43.90
54006;DHT22;39919;38.160;-122.260;2023-05-07T20:34:10;22.70;44.20
54006;DHT22;39919;38.160;-122.260;2023-05-07T20:36:55;22.50;44.00
54006;DHT22;39919;38.160;-122.260;2023-05-07T20:41:53;22.30;43.90
54006;DHT22;39919;38.160;-122.260;2023-05-07T20:44:24;22.20;44.80
54006;DHT22;39919;38.160;-122.260;2023-05-07T20:46:53;22.10;44.50
54006;DHT22;39919;38.160;-122.260;2023-05-07T20:49:22;22.00;45.20
54006;DHT22;39919;38.160;-122.260;2023-05-07T20:51:51;21.90;44.50
54006;DHT22;39919;38.160;-122.260;2023-05-07T20:54:20;21.80;46.00
54006;DHT22;39919;38.160;-122.260;2023-05-07T20:56:49;21.80;46.10
54006;DHT22;39919;38.160;-122.260;2023-05-07T20:59:18;21.70;46.00
54006;DHT22;39919;38.160;-122.260;2023-05-07T21:01:49;21.50;49.20
54006;DHT22;39919;38.160;-122.260;2023-05-07T21:04:32;21.50;46.80
54006;DHT22;39919;38.160;-122.260;2023-05-07T21:07:02;21.30;47.20
54006;DHT22;39919;38.160;-122.260;2023-05-07T21:09:31;21.30;47.00
54006;DHT22;39919;38.160;-122.260;2023-05-07T21:12:00;21.30;47.40
54006;DHT22;39919;38.160;-122.260;2023-05-07T21:14:29;21.20;46.90
54006;DHT22;39919;38.160;-122.260;2023-05-07T21:17:00;21.10;47.20
54006;DHT22;39919;38.160;-122.260;2023-05-07T21:19:30;21.10;47.90
54006;DHT22;39919;38.160;-122.260;2023-05-07T21:21:59;21.00;48.50
54006;DHT22;39919;38.160;-122.260;2023-05-07T21:24:28;20.90;48.30
54006;DHT22;39919;38.160;-122.260;2023-05-07T21:26:57;20.90;49.10
54006;DHT22;39919;38.160;-122.260;2023-05-07T21:29:27;20.90;49.80
54006;DHT22;39919;38.160;-122.260;2023-05-07T21:31:56;20.80;48.80
54006;DHT22;39919;38.160;-122.260;2023-05-07T21:34:27;20.80;49.00
54006;DHT22;39919;38.160;-122.260;2023-05-07T21:36:56;20.60;48.90
54006;DHT22;39919;38.160;-122.260;2023-05-07T21:39:25;20.60;49.30
54006;DHT22;39919;38.160;-122.260;2023-05-07T21:41:53;20.60;49.40